sensor_id;sensor_type;location;lat;lon;timestamp;pressure;altitude;pressure_sealevel;temperature;humidity
61478;BME280;47345;52.334;10.392;2023-03-16T00:00:51;101378.06;;;-0.01;78.78
61478;BME280;47345;52.334;10.392;2023-03-16T00:03:23;101379.52;;;-0.01;79.12
61478;BME280;47345;52.334;10.392;2023-03-16T00:06:10;101379.66;;;-0.01;79.41
61478;BME280;47345;52.334;10.392;2023-03-16T00:08:42;101384.66;;;-0.01;79.40
61478;BME280;47345;52.334;10.392;2023-03-16T00:11:16;101390.12;;;-0.02;79.70
61478;BME280;47345;52.334;10.392;2023-03-16T00:13:49;101393.23;;;-0.00;79.67
61478;BME280;47345;52.334;10.392;2023-03-16T00:16:22;101391.67;;;0.02;79.91
61478;BME280;47345;52.334;10.392;2023-03-16T00:18:56;101394.11;;;0.03;79.77
61478;BME280;47345;52.334;10.392;2023-03-16T00:21:29;101395.15;;;0.03;79.85
61478;BME280;47345;52.334;10.392;2023-03-16T00:24:02;101397.92;;;0.04;80.04
61478;BME280;47345;52.334;10.392;2023-03-16T00:26:35;101396.22;;;0.03;80.05
61478;BME280;47345;52.334;10.392;2023-03-16T00:29:08;101392.72;;;0.02;80.04
61478;BME280;47345;52.334;10.392;2023-03-16T00:31:42;101390.08;;;0.02;80.30
61478;BME280;47345;52.334;10.392;2023-03-16T00:34:16;101394.70;;;-0.00;80.27
61478;BME280;47345;52.334;10.392;2023-03-16T00:36:49;101389.39;;;-0.01;80.31
61478;BME280;47345;52.334;10.392;2023-03-16T00:39:22;101390.48;;;-0.02;80.40
61478;BME280;47345;52.334;10.392;2023-03-16T00:41:55;101387.80;;;-0.02;80.25
61478;BME280;47345;52.334;10.392;2023-03-16T00:44:29;101391.21;;;-0.02;80.48
61478;BME280;47345;52.334;10.392;2023-03-16T00:47:03;101389.50;;;-0.03;80.41
61478;BME280;47345;52.334;10.392;2023-03-16T00:49:39;101394.41;;;-0.04;80.53
61478;BME280;47345;52.334;10.392;2023-03-16T00:52:14;101400.29;;;-0.03;80.56
61478;BME280;47345;52.334;10.392;2023-03-16T00:54:48;101393.25;;;-0.02;80.55
61478;BME280;47345;52.334;10.392;2023-03-16T00:57:24;101395.01;;;-0.02;80.55
61478;BME280;47345;52.334;10.392;2023-03-16T00:59:58;101391.39;;;-0.02;80.61
61478;BME280;47345;52.334;10.392;2023-03-16T01:02:35;101385.17;;;-0.03;80.54
61478;BME280;47345;52.334;10.392;2023-03-16T01:05:10;101389.58;;;-0.02;80.82
61478;BME280;47345;52.334;10.392;2023-03-16T01:07:44;101386.95;;;0.00;80.73
61478;BME280;47345;52.334;10.392;2023-03-16T01:10:17;101387.61;;;0.01;80.79
61478;BME280;47345;52.334;10.392;2023-03-16T01:12:50;101387.49;;;0.03;80.87
61478;BME280;47345;52.334;10.392;2023-03-16T01:15:27;101388.48;;;0.03;80.87
61478;BME280;47345;52.334;10.392;2023-03-16T01:17:59;101389.01;;;0.04;80.87
61478;BME280;47345;52.334;10.392;2023-03-16T01:20:33;101388.48;;;0.03;80.69
61478;BME280;47345;52.334;10.392;2023-03-16T01:23:06;101385.10;;;0.03;80.73
61478;BME280;47345;52.334;10.392;2023-03-16T01:25:39;101380.84;;;0.03;80.91
61478;BME280;47345;52.334;10.392;2023-03-16T01:28:12;101376.63;;;0.01;80.85
61478;BME280;47345;52.334;10.392;2023-03-16T01:30:46;101373.31;;;0.00;80.90
61478;BME280;47345;52.334;10.392;2023-03-16T01:33:19;101373.04;;;-0.01;81.07
61478;BME280;47345;52.334;10.392;2023-03-16T01:36:05;101368.50;;;-0.03;80.83
61478;BME280;47345;52.334;10.392;2023-03-16T01:38:39;101369.18;;;-0.04;80.86
61478;BME280;47345;52.334;10.392;2023-03-16T01:41:12;101369.86;;;-0.06;81.02
61478;BME280;47345;52.334;10.392;2023-03-16T01:43:45;101367.16;;;-0.08;80.97
61478;BME280;47345;52.334;10.392;2023-03-16T01:46:21;101362.67;;;-0.10;80.71
61478;BME280;47345;52.334;10.392;2023-03-16T01:49:03;101359.50;;;-0.11;80.92
61478;BME280;47345;52.334;10.392;2023-03-16T01:51:41;101362.48;;;-0.12;80.81
61478;BME280;47345;52.334;10.392;2023-03-16T01:54:21;101360.63;;;-0.14;81.08
61478;BME280;47345;52.334;10.392;2023-03-16T01:57:00;101359.13;;;-0.16;81.08
61478;BME280;47345;52.334;10.392;2023-03-16T01:59:40;101358.54;;;-0.17;81.03
61478;BME280;47345;52.334;10.392;2023-03-16T02:02:20;101359.10;;;-0.18;81.17
61478;BME280;47345;52.334;10.392;2023-03-16T02:04:57;101355.41;;;-0.19;81.14
61478;BME280;47345;52.334;10.392;2023-03-16T02:07:37;101352.83;;;-0.20;81.18
61478;BME280;47345;52.334;10.392;2023-03-16T02:10:15;101355.27;;;-0.21;81.08
61478;BME280;47345;52.334;10.392;2023-03-16T02:12:49;101355.42;;;-0.23;81.23
61478;BME280;47345;52.334;10.392;2023-03-16T02:15:23;101359.00;;;-0.25;81.33
61478;BME280;47345;52.334;10.392;2023-03-16T02:17:57;101359.05;;;-0.26;81.46
61478;BME280;47345;52.334;10.392;2023-03-16T02:20:38;101360.24;;;-0.25;81.58
61478;BME280;47345;52.334;10.392;2023-03-16T02:23:18;101362.45;;;-0.26;81.54
61478;BME280;47345;52.334;10.392;2023-03-16T02:25:56;101368.67;;;-0.27;81.55
61478;BME280;47345;52.334;10.392;2023-03-16T02:28:37;101363.40;;;-0.29;81.63
61478;BME280;47345;52.334;10.392;2023-03-16T02:31:19;101363.30;;;-0.30;81.60
61478;BME280;47345;52.334;10.392;2023-03-16T02:33:54;101366.55;;;-0.31;81.74
61478;BME280;47345;52.334;10.392;2023-03-16T02:36:29;101369.03;;;-0.30;81.63
61478;BME280;47345;52.334;10.392;2023-03-16T02:39:05;101365.25;;;-0.30;81.53
61478;BME280;47345;52.334;10.392;2023-03-16T02:41:38;101364.84;;;-0.29;81.60
61478;BME280;47345;52.334;10.392;2023-03-16T02:44:15;101366.77;;;-0.28;81.64
61478;BME280;47345;52.334;10.392;2023-03-16T02:46:49;101362.56;;;-0.27;81.64
61478;BME280;47345;52.334;10.392;2023-03-16T02:49:27;101359.38;;;-0.28;81.65
61478;BME280;47345;52.334;10.392;2023-03-16T02:52:01;101361.39;;;-0.28;81.60
61478;BME280;47345;52.334;10.392;2023-03-16T02:54:35;101355.96;;;-0.30;81.31
61478;BME280;47345;52.334;10.392;2023-03-16T02:57:08;101350.20;;;-0.32;81.28
61478;BME280;47345;52.334;10.392;2023-03-16T02:59:44;101349.89;;;-0.35;81.37
61478;BME280;47345;52.334;10.392;2023-03-16T03:02:18;101345.58;;;-0.37;81.46
61478;BME280;47345;52.334;10.392;2023-03-16T03:04:51;101346.50;;;-0.38;81.46
61478;BME280;47345;52.334;10.392;2023-03-16T03:07:24;101339.16;;;-0.40;81.20
61478;BME280;47345;52.334;10.392;2023-03-16T03:10:02;101338.92;;;-0.41;81.19
61478;BME280;47345;52.334;10.392;2023-03-16T03:12:36;101334.49;;;-0.42;81.41
61478;BME280;47345;52.334;10.392;2023-03-16T03:15:10;101334.56;;;-0.43;81.30
61478;BME280;47345;52.334;10.392;2023-03-16T03:17:44;101337.55;;;-0.45;80.90
61478;BME280;47345;52.334;10.392;2023-03-16T03:20:17;101334.73;;;-0.48;80.77
61478;BME280;47345;52.334;10.392;2023-03-16T03:22:50;101334.90;;;-0.50;80.92
61478;BME280;47345;52.334;10.392;2023-03-16T03:25:24;101332.75;;;-0.52;80.67
61478;BME280;47345;52.334;10.392;2023-03-16T03:27:57;101332.49;;;-0.53;81.07
61478;BME280;47345;52.334;10.392;2023-03-16T03:30:31;101330.70;;;-0.53;81.15
61478;BME280;47345;52.334;10.392;2023-03-16T03:33:05;101330.48;;;-0.55;80.51
61478;BME280;47345;52.334;10.392;2023-03-16T03:35:39;101333.77;;;-0.58;80.46
61478;BME280;47345;52.334;10.392;2023-03-16T03:38:14;101332.73;;;-0.61;80.60
61478;BME280;47345;52.334;10.392;2023-03-16T03:40:50;101332.02;;;-0.63;80.54
61478;BME280;47345;52.334;10.392;2023-03-16T03:43:22;101334.61;;;-0.65;80.58
61478;BME280;47345;52.334;10.392;2023-03-16T03:45:59;101336.61;;;-0.67;80.26
61478;BME280;47345;52.334;10.392;2023-03-16T03:48:32;101334.23;;;-0.71;80.40
61478;BME280;47345;52.334;10.392;2023-03-16T03:51:06;101336.21;;;-0.74;80.44
61478;BME280;47345;52.334;10.392;2023-03-16T03:53:39;101335.10;;;-0.76;80.17
61478;BME280;47345;52.334;10.392;2023-03-16T03:56:12;101340.31;;;-0.78;80.29
61478;BME280;47345;52.334;10.392;2023-03-16T03:58:46;101339.79;;;-0.81;80.07
61478;BME280;47345;52.334;10.392;2023-03-16T04:01:19;101333.91;;;-0.83;79.94
61478;BME280;47345;52.334;10.392;2023-03-16T04:03:51;101338.32;;;-0.85;79.86
61478;BME280;47345;52.334;10.392;2023-03-16T04:06:25;101337.79;;;-0.87;79.64
61478;BME280;47345;52.334;10.392;2023-03-16T04:08:58;101337.41;;;-0.90;79.45
61478;BME280;47345;52.334;10.392;2023-03-16T04:11:31;101339.19;;;-0.92;79.43
61478;BME280;47345;52.334;10.392;2023-03-16T04:14:05;101341.31;;;-0.94;79.46
61478;BME280;47345;52.334;10.392;2023-03-16T04:16:39;101349.21;;;-0.96;79.18
61478;BME280;47345;52.334;10.392;2023-03-16T04:19:14;101346.27;;;-1.00;78.88
61478;BME280;47345;52.334;10.392;2023-03-16T04:21:47;101347.16;;;-1.02;79.19
61478;BME280;47345;52.334;10.392;2023-03-16T04:24:21;101343.45;;;-1.05;78.97
61478;BME280;47345;52.334;10.392;2023-03-16T04:26:52;101341.34;;;-1.08;79.13
61478;BME280;47345;52.334;10.392;2023-03-16T04:29:26;101341.89;;;-1.11;79.26
61478;BME280;47345;52.334;10.392;2023-03-16T04:31:58;101340.25;;;-1.13;79.32
61478;BME280;47345;52.334;10.392;2023-03-16T04:34:32;101342.80;;;-1.15;79.22
61478;BME280;47345;52.334;10.392;2023-03-16T04:37:06;101340.96;;;-1.17;79.39
61478;BME280;47345;52.334;10.392;2023-03-16T04:39:40;101340.34;;;-1.19;79.16
61478;BME280;47345;52.334;10.392;2023-03-16T04:42:13;101346.71;;;-1.20;79.26
61478;BME280;47345;52.334;10.392;2023-03-16T04:44:46;101346.63;;;-1.22;79.23
61478;BME280;47345;52.334;10.392;2023-03-16T04:47:19;101349.45;;;-1.24;79.29
61478;BME280;47345;52.334;10.392;2023-03-16T04:49:53;101344.73;;;-1.25;79.28
61478;BME280;47345;52.334;10.392;2023-03-16T04:52:26;101344.29;;;-1.26;79.57
61478;BME280;47345;52.334;10.392;2023-03-16T04:54:59;101338.49;;;-1.28;79.58
61478;BME280;47345;52.334;10.392;2023-03-16T04:57:31;101339.03;;;-1.28;79.95
61478;BME280;47345;52.334;10.392;2023-03-16T05:00:07;101343.71;;;-1.25;80.13
61478;BME280;47345;52.334;10.392;2023-03-16T05:02:41;101341.65;;;-1.24;80.17
61478;BME280;47345;52.334;10.392;2023-03-16T05:05:14;101344.69;;;-1.24;79.71
61478;BME280;47345;52.334;10.392;2023-03-16T05:07:49;101338.33;;;-1.24;80.01
61478;BME280;47345;52.334;10.392;2023-03-16T05:10:22;101341.84;;;-1.22;80.05
61478;BME280;47345;52.334;10.392;2023-03-16T05:12:55;101346.17;;;-1.23;79.63
61478;BME280;47345;52.334;10.392;2023-03-16T05:15:28;101344.55;;;-1.22;79.84
61478;BME280;47345;52.334;10.392;2023-03-16T05:18:02;101350.26;;;-1.22;79.88
61478;BME280;47345;52.334;10.392;2023-03-16T05:20:35;101349.58;;;-1.23;79.64
61478;BME280;47345;52.334;10.392;2023-03-16T05:23:08;101349.45;;;-1.23;79.46
61478;BME280;47345;52.334;10.392;2023-03-16T05:25:42;101356.01;;;-1.25;79.26
61478;BME280;47345;52.334;10.392;2023-03-16T05:28:17;101358.94;;;-1.26;79.26
61478;BME280;47345;52.334;10.392;2023-03-16T05:30:51;101354.17;;;-1.27;79.34
61478;BME280;47345;52.334;10.392;2023-03-16T05:33:24;101357.61;;;-1.27;79.13
61478;BME280;47345;52.334;10.392;2023-03-16T05:35:57;101358.47;;;-1.27;79.28
61478;BME280;47345;52.334;10.392;2023-03-16T05:38:31;101351.80;;;-1.26;79.03
61478;BME280;47345;52.334;10.392;2023-03-16T05:41:07;101347.69;;;-1.26;78.90
61478;BME280;47345;52.334;10.392;2023-03-16T05:43:40;101341.99;;;-1.27;78.84
61478;BME280;47345;52.334;10.392;2023-03-16T05:46:13;101340.28;;;-1.28;78.94
61478;BME280;47345;52.334;10.392;2023-03-16T05:48:50;101337.04;;;-1.27;79.38
61478;BME280;47345;52.334;10.392;2023-03-16T05:51:23;101337.12;;;-1.26;79.57
61478;BME280;47345;52.334;10.392;2023-03-16T05:53:57;101342.39;;;-1.25;79.36
61478;BME280;47345;52.334;10.392;2023-03-16T05:59:04;101338.46;;;-1.20;79.40
61478;BME280;47345;52.334;10.392;2023-03-16T06:01:37;101339.08;;;-1.19;79.37
61478;BME280;47345;52.334;10.392;2023-03-16T06:04:11;101339.45;;;-1.14;79.57
61478;BME280;47345;52.334;10.392;2023-03-16T06:06:44;101337.30;;;-1.12;79.41
61478;BME280;47345;52.334;10.392;2023-03-16T06:09:17;101334.69;;;-1.08;79.48
61478;BME280;47345;52.334;10.392;2023-03-16T06:11:50;101329.86;;;-1.06;79.50
61478;BME280;47345;52.334;10.392;2023-03-16T06:14:24;101326.94;;;-1.02;79.54
61478;BME280;47345;52.334;10.392;2023-03-16T06:16:57;101322.44;;;-1.00;79.36
61478;BME280;47345;52.334;10.392;2023-03-16T06:19:30;101321.86;;;-0.97;79.32
61478;BME280;47345;52.334;10.392;2023-03-16T06:22:02;101316.21;;;-0.93;79.33
61478;BME280;47345;52.334;10.392;2023-03-16T06:24:36;101310.77;;;-0.90;79.10
61478;BME280;47345;52.334;10.392;2023-03-16T06:27:09;101310.73;;;-0.85;79.53
61478;BME280;47345;52.334;10.392;2023-03-16T06:29:43;101316.93;;;-0.79;79.39
61478;BME280;47345;52.334;10.392;2023-03-16T06:32:17;101319.36;;;-0.73;79.24
61478;BME280;47345;52.334;10.392;2023-03-16T06:34:51;101324.66;;;-0.68;79.26
61478;BME280;47345;52.334;10.392;2023-03-16T06:37:23;101327.50;;;-0.60;79.30
61478;BME280;47345;52.334;10.392;2023-03-16T06:39:56;101327.80;;;-0.53;79.37
61478;BME280;47345;52.334;10.392;2023-03-16T06:42:29;101331.19;;;-0.43;79.36
61478;BME280;47345;52.334;10.392;2023-03-16T06:45:02;101331.88;;;-0.34;79.40
61478;BME280;47345;52.334;10.392;2023-03-16T06:47:34;101337.75;;;-0.24;79.35
61478;BME280;47345;52.334;10.392;2023-03-16T06:50:08;101334.63;;;-0.14;79.43
61478;BME280;47345;52.334;10.392;2023-03-16T06:52:42;101336.83;;;-0.03;79.36
61478;BME280;47345;52.334;10.392;2023-03-16T06:55:15;101336.52;;;0.07;79.37
61478;BME280;47345;52.334;10.392;2023-03-16T06:57:48;101346.80;;;0.18;79.48
61478;BME280;47345;52.334;10.392;2023-03-16T07:00:23;101345.45;;;0.28;79.50
61478;BME280;47345;52.334;10.392;2023-03-16T07:02:56;101349.01;;;0.37;79.34
61478;BME280;47345;52.334;10.392;2023-03-16T07:05:30;101352.44;;;0.46;79.37
61478;BME280;47345;52.334;10.392;2023-03-16T07:08:03;101352.98;;;0.55;79.40
61478;BME280;47345;52.334;10.392;2023-03-16T07:10:35;101351.59;;;0.63;79.16
61478;BME280;47345;52.334;10.392;2023-03-16T07:13:08;101358.96;;;0.71;79.02
61478;BME280;47345;52.334;10.392;2023-03-16T07:15:41;101361.27;;;0.81;78.58
61478;BME280;47345;52.334;10.392;2023-03-16T07:18:14;101356.81;;;0.91;78.65
61478;BME280;47345;52.334;10.392;2023-03-16T07:20:47;101360.79;;;1.01;78.72
61478;BME280;47345;52.334;10.392;2023-03-16T07:23:20;101362.30;;;1.11;78.45
61478;BME280;47345;52.334;10.392;2023-03-16T07:25:54;101368.52;;;1.21;77.63
61478;BME280;47345;52.334;10.392;2023-03-16T07:28:27;101367.73;;;1.30;76.93
61478;BME280;47345;52.334;10.392;2023-03-16T07:31:02;101367.88;;;1.37;76.29
61478;BME280;47345;52.334;10.392;2023-03-16T07:33:35;101367.73;;;1.43;75.82
61478;BME280;47345;52.334;10.392;2023-03-16T07:36:09;101367.21;;;1.47;75.47
61478;BME280;47345;52.334;10.392;2023-03-16T07:38:41;101373.47;;;1.52;75.28
61478;BME280;47345;52.334;10.392;2023-03-16T07:41:14;101380.33;;;1.55;75.37
61478;BME280;47345;52.334;10.392;2023-03-16T07:43:47;101381.73;;;1.60;75.12
61478;BME280;47345;52.334;10.392;2023-03-16T07:46:20;101387.29;;;1.64;75.06
61478;BME280;47345;52.334;10.392;2023-03-16T07:48:53;101385.92;;;1.68;75.27
61478;BME280;47345;52.334;10.392;2023-03-16T07:51:26;101386.91;;;1.71;75.17
61478;BME280;47345;52.334;10.392;2023-03-16T07:53:59;101384.77;;;1.75;74.79
61478;BME280;47345;52.334;10.392;2023-03-16T07:56:32;101387.98;;;1.79;74.73
61478;BME280;47345;52.334;10.392;2023-03-16T07:59:18;101385.02;;;1.84;74.63
61478;BME280;47345;52.334;10.392;2023-03-16T08:01:51;101382.23;;;1.89;74.52
61478;BME280;47345;52.334;10.392;2023-03-16T08:04:23;101379.31;;;1.94;74.41
61478;BME280;47345;52.334;10.392;2023-03-16T08:06:56;101379.05;;;1.99;74.14
61478;BME280;47345;52.334;10.392;2023-03-16T08:09:30;101380.18;;;2.05;73.87
61478;BME280;47345;52.334;10.392;2023-03-16T08:12:06;101381.88;;;2.10;73.37
61478;BME280;47345;52.334;10.392;2023-03-16T08:14:39;101384.02;;;2.16;73.64
61478;BME280;47345;52.334;10.392;2023-03-16T08:17:12;101375.63;;;2.22;73.64
61478;BME280;47345;52.334;10.392;2023-03-16T08:19:45;101374.96;;;2.27;73.60
61478;BME280;47345;52.334;10.392;2023-03-16T08:22:17;101370.86;;;2.33;73.02
61478;BME280;47345;52.334;10.392;2023-03-16T08:24:49;101373.40;;;2.39;72.56
61478;BME280;47345;52.334;10.392;2023-03-16T08:27:21;101374.65;;;2.45;72.37
61478;BME280;47345;52.334;10.392;2023-03-16T08:29:56;101376.52;;;2.52;72.49
61478;BME280;47345;52.334;10.392;2023-03-16T08:32:35;101385.07;;;2.59;72.28
61478;BME280;47345;52.334;10.392;2023-03-16T08:35:10;101379.17;;;2.67;72.51
61478;BME280;47345;52.334;10.392;2023-03-16T08:37:43;101381.59;;;2.76;71.57
61478;BME280;47345;52.334;10.392;2023-03-16T08:40:15;101377.81;;;2.86;71.03
61478;BME280;47345;52.334;10.392;2023-03-16T08:42:52;101379.70;;;2.95;70.31
61478;BME280;47345;52.334;10.392;2023-03-16T08:45:25;101381.64;;;3.03;69.93
61478;BME280;47345;52.334;10.392;2023-03-16T08:47:58;101379.85;;;3.11;69.41
61478;BME280;47345;52.334;10.392;2023-03-16T08:50:29;101376.35;;;3.18;68.69
61478;BME280;47345;52.334;10.392;2023-03-16T08:53:02;101378.33;;;3.28;68.45
61478;BME280;47345;52.334;10.392;2023-03-16T08:55:34;101379.20;;;3.37;67.59
61478;BME280;47345;52.334;10.392;2023-03-16T08:58:07;101378.41;;;3.48;67.12
61478;BME280;47345;52.334;10.392;2023-03-16T09:00:39;101374.98;;;3.56;67.31
61478;BME280;47345;52.334;10.392;2023-03-16T09:03:15;101382.27;;;3.63;66.92
61478;BME280;47345;52.334;10.392;2023-03-16T09:05:49;101383.02;;;3.68;67.16
61478;BME280;47345;52.334;10.392;2023-03-16T09:08:21;101384.41;;;3.74;65.73
61478;BME280;47345;52.334;10.392;2023-03-16T09:11:01;101380.88;;;3.81;65.61
61478;BME280;47345;52.334;10.392;2023-03-16T09:13:35;101379.45;;;3.89;64.97
61478;BME280;47345;52.334;10.392;2023-03-16T09:16:10;101382.90;;;3.96;64.39
61478;BME280;47345;52.334;10.392;2023-03-16T09:18:42;101378.19;;;4.06;64.13
61478;BME280;47345;52.334;10.392;2023-03-16T09:21:16;101378.69;;;4.15;63.70
61478;BME280;47345;52.334;10.392;2023-03-16T09:23:49;101377.04;;;4.23;63.72
61478;BME280;47345;52.334;10.392;2023-03-16T09:26:21;101365.88;;;4.30;62.71
61478;BME280;47345;52.334;10.392;2023-03-16T09:28:54;101366.38;;;4.36;62.61
61478;BME280;47345;52.334;10.392;2023-03-16T09:31:26;101368.48;;;4.42;61.94
61478;BME280;47345;52.334;10.392;2023-03-16T09:33:58;101366.52;;;4.50;61.07
61478;BME280;47345;52.334;10.392;2023-03-16T09:36:31;101359.85;;;4.57;61.80
61478;BME280;47345;52.334;10.392;2023-03-16T09:39:04;101360.44;;;4.64;61.46
61478;BME280;47345;52.334;10.392;2023-03-16T09:41:43;101357.14;;;4.70;61.73
61478;BME280;47345;52.334;10.392;2023-03-16T09:44:30;101360.32;;;4.76;61.65
61478;BME280;47345;52.334;10.392;2023-03-16T09:47:06;101355.41;;;4.85;61.10
61478;BME280;47345;52.334;10.392;2023-03-16T09:49:44;101353.30;;;4.92;60.40
61478;BME280;47345;52.334;10.392;2023-03-16T09:52:27;101350.29;;;4.98;59.58
61478;BME280;47345;52.334;10.392;2023-03-16T09:55:06;101348.40;;;5.07;59.14
61478;BME280;47345;52.334;10.392;2023-03-16T09:57:45;101344.64;;;5.13;58.07
61478;BME280;47345;52.334;10.392;2023-03-16T10:00:22;101344.01;;;5.20;58.58
61478;BME280;47345;52.334;10.392;2023-03-16T10:03:08;101338.58;;;5.25;58.24
61478;BME280;47345;52.334;10.392;2023-03-16T10:05:42;101334.74;;;5.29;57.04
61478;BME280;47345;52.334;10.392;2023-03-16T10:08:19;101333.55;;;5.33;57.22
61478;BME280;47345;52.334;10.392;2023-03-16T10:11:14;101329.53;;;5.39;55.77
61478;BME280;47345;52.334;10.392;2023-03-16T10:13:52;101327.53;;;5.45;56.29
61478;BME280;47345;52.334;10.392;2023-03-16T10:16:29;101329.71;;;5.46;55.86
61478;BME280;47345;52.334;10.392;2023-03-16T10:19:06;101325.75;;;5.48;55.81
61478;BME280;47345;52.334;10.392;2023-03-16T10:21:42;101327.69;;;5.52;55.81
61478;BME280;47345;52.334;10.392;2023-03-16T10:24:26;101332.27;;;5.57;56.02
61478;BME280;47345;52.334;10.392;2023-03-16T10:27:08;101324.66;;;5.62;56.65
61478;BME280;47345;52.334;10.392;2023-03-16T10:29:46;101321.86;;;5.69;57.25
61478;BME280;47345;52.334;10.392;2023-03-16T10:32:19;101324.55;;;5.73;57.61
61478;BME280;47345;52.334;10.392;2023-03-16T10:34:58;101326.63;;;5.78;57.45
61478;BME280;47345;52.334;10.392;2023-03-16T10:37:33;101319.27;;;5.81;56.23
61478;BME280;47345;52.334;10.392;2023-03-16T10:40:10;101318.77;;;5.84;55.59
61478;BME280;47345;52.334;10.392;2023-03-16T10:42:42;101319.55;;;5.87;56.64
61478;BME280;47345;52.334;10.392;2023-03-16T10:45:26;101319.00;;;5.90;55.62
61478;BME280;47345;52.334;10.392;2023-03-16T10:48:14;101310.66;;;5.94;56.36
61478;BME280;47345;52.334;10.392;2023-03-16T10:50:53;101308.89;;;5.97;55.84
61478;BME280;47345;52.334;10.392;2023-03-16T10:53:30;101307.83;;;6.00;55.25
61478;BME280;47345;52.334;10.392;2023-03-16T10:56:12;101302.42;;;6.04;55.34
61478;BME280;47345;52.334;10.392;2023-03-16T10:58:49;101302.14;;;6.08;54.80
61478;BME280;47345;52.334;10.392;2023-03-16T11:01:24;101297.41;;;6.12;54.83
61478;BME280;47345;52.334;10.392;2023-03-16T11:03:57;101297.71;;;6.15;54.57
61478;BME280;47345;52.334;10.392;2023-03-16T11:06:31;101297.63;;;6.18;54.13
61478;BME280;47345;52.334;10.392;2023-03-16T11:09:11;101294.86;;;6.23;53.64
61478;BME280;47345;52.334;10.392;2023-03-16T11:11:49;101290.13;;;6.26;53.00
61478;BME280;47345;52.334;10.392;2023-03-16T11:14:24;101287.69;;;6.30;52.34
61478;BME280;47345;52.334;10.392;2023-03-16T11:17:01;101280.13;;;6.36;52.80
61478;BME280;47345;52.334;10.392;2023-03-16T11:19:37;101269.48;;;6.43;52.13
61478;BME280;47345;52.334;10.392;2023-03-16T11:22:14;101262.47;;;6.51;51.57
61478;BME280;47345;52.334;10.392;2023-03-16T11:24:51;101259.39;;;6.57;50.74
61478;BME280;47345;52.334;10.392;2023-03-16T11:27:25;101256.83;;;6.64;50.96
61478;BME280;47345;52.334;10.392;2023-03-16T11:30:07;101259.11;;;6.72;51.28
61478;BME280;47345;52.334;10.392;2023-03-16T11:32:42;101263.98;;;6.78;51.19
61478;BME280;47345;52.334;10.392;2023-03-16T11:35:18;101252.11;;;6.83;49.58
61478;BME280;47345;52.334;10.392;2023-03-16T11:38:02;101252.20;;;6.90;49.54
61478;BME280;47345;52.334;10.392;2023-03-16T11:40:46;101256.27;;;7.01;49.41
61478;BME280;47345;52.334;10.392;2023-03-16T11:43:43;101247.80;;;7.10;49.11
61478;BME280;47345;52.334;10.392;2023-03-16T11:46:18;101251.32;;;7.21;48.21
61478;BME280;47345;52.334;10.392;2023-03-16T11:49:01;101247.73;;;7.30;48.30
61478;BME280;47345;52.334;10.392;2023-03-16T11:51:45;101248.57;;;7.39;48.03
61478;BME280;47345;52.334;10.392;2023-03-16T11:54:35;101240.23;;;7.49;47.56
61478;BME280;47345;52.334;10.392;2023-03-16T11:57:21;101234.52;;;7.58;47.95
61478;BME280;47345;52.334;10.392;2023-03-16T12:00:02;101234.02;;;7.65;47.91
61478;BME280;47345;52.334;10.392;2023-03-16T12:02:48;101230.21;;;7.72;47.84
61478;BME280;47345;52.334;10.392;2023-03-16T12:05:34;101227.02;;;7.74;47.82
61478;BME280;47345;52.334;10.392;2023-03-16T12:08:36;101217.21;;;7.74;47.43
61478;BME280;47345;52.334;10.392;2023-03-16T12:11:11;101212.45;;;7.76;47.14
61478;BME280;47345;52.334;10.392;2023-03-16T12:13:59;101204.94;;;7.75;46.58
61478;BME280;47345;52.334;10.392;2023-03-16T12:16:37;101201.10;;;7.74;46.52
61478;BME280;47345;52.334;10.392;2023-03-16T12:19:23;101198.17;;;7.74;45.73
61478;BME280;47345;52.334;10.392;2023-03-16T12:22:10;101202.14;;;7.73;45.71
61478;BME280;47345;52.334;10.392;2023-03-16T12:24:46;101206.52;;;7.72;45.68
61478;BME280;47345;52.334;10.392;2023-03-16T12:27:20;101199.38;;;7.71;45.42
61478;BME280;47345;52.334;10.392;2023-03-16T12:30:01;101191.24;;;7.71;45.00
61478;BME280;47345;52.334;10.392;2023-03-16T12:32:42;101191.42;;;7.71;45.33
61478;BME280;47345;52.334;10.392;2023-03-16T12:35:28;101186.69;;;7.71;45.39
61478;BME280;47345;52.334;10.392;2023-03-16T12:38:13;101181.95;;;7.71;44.92
61478;BME280;47345;52.334;10.392;2023-03-16T12:40:50;101180.14;;;7.71;44.79
61478;BME280;47345;52.334;10.392;2023-03-16T12:43:40;101177.04;;;7.73;45.24
61478;BME280;47345;52.334;10.392;2023-03-16T12:46:15;101172.90;;;7.77;45.65
61478;BME280;47345;52.334;10.392;2023-03-16T12:48:51;101170.63;;;7.83;45.27
61478;BME280;47345;52.334;10.392;2023-03-16T12:51:32;101161.77;;;7.90;44.57
61478;BME280;47345;52.334;10.392;2023-03-16T12:54:04;101155.33;;;7.96;43.62
61478;BME280;47345;52.334;10.392;2023-03-16T12:56:42;101154.34;;;8.00;44.01
61478;BME280;47345;52.334;10.392;2023-03-16T12:59:18;101152.23;;;8.04;44.00
61478;BME280;47345;52.334;10.392;2023-03-16T13:01:51;101153.16;;;8.08;44.47
61478;BME280;47345;52.334;10.392;2023-03-16T13:04:31;101154.57;;;8.12;44.73
61478;BME280;47345;52.334;10.392;2023-03-16T13:07:05;101156.77;;;8.18;44.11
61478;BME280;47345;52.334;10.392;2023-03-16T13:09:41;101149.41;;;8.23;44.16
61478;BME280;47345;52.334;10.392;2023-03-16T13:12:24;101146.67;;;8.29;43.01
61478;BME280;47345;52.334;10.392;2023-03-16T13:14:56;101144.75;;;8.35;43.69
61478;BME280;47345;52.334;10.392;2023-03-16T13:17:30;101137.11;;;8.38;42.69
61478;BME280;47345;52.334;10.392;2023-03-16T13:20:22;101130.33;;;8.42;43.34
61478;BME280;47345;52.334;10.392;2023-03-16T13:23:20;101117.90;;;8.46;43.81
61478;BME280;47345;52.334;10.392;2023-03-16T13:26:14;101119.85;;;8.49;43.35
61478;BME280;47345;52.334;10.392;2023-03-16T13:28:50;101118.34;;;8.54;43.75
61478;BME280;47345;52.334;10.392;2023-03-16T13:31:26;101114.92;;;8.60;43.47